createdAt,value
2019-05-25T00:07:40.594Z,5.67
2019-05-25T00:15:58.037Z,6.00
2019-05-25T00:24:15.489Z,4.90
2019-05-25T00:32:33.023Z,4.10
2019-05-25T00:40:50.651Z,6.23
2019-05-25T00:57:56.148Z,10.67
2019-05-25T01:15:14.964Z,3.90
2019-05-25T01:23:32.436Z,13.80
2019-05-25T01:31:49.982Z,4.63
2019-05-25T01:40:07.850Z,7.30
2019-05-25T01:48:25.347Z,7.23
2019-05-25T01:56:42.792Z,5.60
2019-05-25T02:05:00.269Z,5.80
2019-05-25T02:13:17.761Z,6.43
2019-05-25T02:21:35.218Z,3.73
2019-05-25T02:29:52.749Z,8.17
2019-05-25T02:38:10.306Z,7.10
2019-05-25T02:46:27.750Z,11.03
2019-05-25T02:54:45.196Z,5.83
2019-05-25T03:03:02.970Z,6.43
2019-05-25T03:11:20.879Z,10.63
2019-05-25T03:19:38.422Z,5.37
2019-05-25T03:27:55.855Z,9.10
2019-05-25T03:36:13.357Z,15.67
2019-05-25T03:44:30.960Z,10.63
2019-05-25T03:52:48.463Z,8.27
2019-05-25T04:09:52.937Z,5.40
2019-05-25T04:18:10.383Z,5.37
2019-05-25T04:26:27.859Z,8.00
2019-05-25T04:34:45.330Z,14.13
2019-05-25T04:52:01.967Z,6.73
2019-05-25T05:00:23.990Z,6.40
2019-05-25T05:08:42.743Z,4.10
2019-05-25T05:17:00.191Z,4.70
2019-05-25T05:25:17.616Z,7.60
2019-05-25T05:33:35.081Z,7.23
2019-05-25T05:50:52.613Z,6.53
2019-05-25T05:59:10.096Z,6.07
2019-05-25T06:07:27.674Z,7.53
2019-05-25T06:15:45.289Z,6.60
2019-05-25T06:33:02.027Z,5.73
2019-05-25T06:41:19.436Z,6.27
2019-05-25T06:49:36.897Z,8.23
2019-05-25T06:57:54.388Z,6.03
2019-05-25T07:06:11.846Z,4.40
2019-05-25T07:14:29.292Z,4.30
2019-05-25T07:22:46.704Z,8.58
2019-05-25T07:31:43.417Z,7.87
2019-05-25T07:40:00.865Z,12.03
2019-05-25T07:48:18.299Z,15.37
2019-05-25T07:56:35.732Z,16.97
2019-05-25T08:13:39.911Z,5.93
2019-05-25T08:21:57.380Z,7.67
2019-05-25T08:30:15.353Z,9.88
2019-05-25T08:38:32.838Z,12.58
2019-05-25T08:46:50.294Z,7.60
2019-05-25T08:55:08.093Z,5.65
2019-05-25T09:03:25.544Z,7.63
2019-05-25T09:11:43.004Z,10.63
2019-05-25T09:20:00.497Z,6.67
2019-05-25T09:28:18.343Z,6.17
2019-05-25T09:36:36.381Z,8.03
2019-05-25T09:44:53.907Z,8.20
2019-05-25T09:53:11.390Z,8.80
2019-05-25T10:01:28.963Z,8.30
2019-05-25T10:09:46.790Z,8.53
2019-05-25T10:18:04.297Z,10.37
2019-05-25T10:26:23.166Z,8.10
2019-05-25T10:34:40.865Z,6.42
2019-05-25T10:42:58.409Z,4.43
2019-05-25T10:51:15.948Z,6.40
2019-05-25T10:59:33.981Z,5.33
2019-05-25T11:07:51.431Z,6.80
2019-05-25T11:16:08.975Z,6.93
2019-05-25T11:24:26.474Z,8.63
2019-05-25T11:32:43.988Z,7.67
2019-05-25T11:41:01.821Z,7.10
2019-05-25T11:49:22.580Z,4.60
2019-05-25T11:57:38.578Z,6.10
2019-05-25T12:05:56.041Z,11.93
2019-05-25T12:14:13.517Z,4.27
2019-05-25T12:22:30.996Z,8.40
2019-05-25T12:30:48.454Z,7.03
2019-05-25T12:39:06.306Z,4.33
2019-05-25T12:47:23.759Z,4.90
2019-05-25T12:55:42.252Z,4.00
2019-05-25T13:03:59.717Z,5.90
2019-05-25T13:12:17.145Z,6.87
2019-05-25T13:20:34.662Z,6.23
2019-05-25T13:28:52.208Z,12.50
2019-05-25T13:37:09.650Z,5.80
2019-05-25T13:45:27.213Z,10.20
2019-05-25T13:53:44.663Z,8.60
2019-05-25T14:02:02.301Z,9.67
2019-05-25T14:10:19.742Z,10.20
2019-05-25T14:18:37.277Z,8.03
2019-05-25T14:26:54.720Z,13.20
2019-05-25T14:35:12.512Z,11.18
2019-05-25T14:43:29.967Z,12.50
2019-05-25T14:51:47.397Z,8.60
2019-05-25T15:00:05.429Z,14.40
2019-05-25T15:08:22.893Z,5.93
2019-05-25T15:16:40.439Z,6.47
2019-05-25T15:24:57.897Z,6.70
2019-05-25T15:33:15.346Z,6.93
2019-05-25T15:41:32.774Z,6.50
2019-05-25T15:49:50.213Z,12.00
2019-05-25T15:58:07.821Z,5.90
2019-05-25T16:06:25.293Z,8.20
2019-05-25T16:14:42.709Z,6.60
2019-05-25T16:23:00.138Z,7.73
2019-05-25T16:31:17.588Z,7.30
2019-05-25T16:39:35.064Z,4.13
2019-05-25T16:47:52.643Z,5.10
2019-05-25T16:56:11.679Z,6.50
2019-05-25T17:04:31.558Z,5.83
2019-05-25T17:12:49.643Z,9.80
2019-05-25T17:21:08.441Z,6.95
2019-05-25T17:29:26.875Z,8.70
2019-05-25T17:37:46.335Z,6.60
2019-05-25T17:46:04.822Z,5.87
2019-05-25T17:54:23.762Z,6.93
2019-05-25T18:02:41.437Z,6.10
2019-05-25T18:10:59.331Z,6.27
2019-05-25T18:19:16.890Z,7.37
2019-05-25T18:27:34.692Z,14.07
2019-05-25T18:35:52.599Z,7.33
2019-05-25T18:44:10.585Z,24.87
2019-05-25T18:52:28.644Z,16.67
2019-05-25T19:00:46.580Z,8.75
2019-05-25T19:09:06.084Z,13.00
2019-05-25T19:17:24.025Z,10.77
2019-05-25T19:25:41.785Z,4.63
2019-05-25T19:33:59.691Z,6.93
2019-05-25T19:42:17.180Z,13.53
2019-05-25T19:50:34.696Z,17.73
2019-05-25T19:58:52.196Z,19.77
2019-05-25T20:07:09.723Z,11.77
2019-05-25T20:15:27.237Z,32.85
2019-05-25T20:23:44.693Z,32.63
2019-05-25T20:32:02.164Z,15.25
2019-05-25T20:40:19.735Z,46.60
2019-05-25T20:48:37.452Z,39.42
2019-05-25T20:56:55.135Z,30.60
2019-05-25T21:05:12.781Z,28.47
2019-05-25T21:13:30.605Z,9.60
2019-05-25T21:21:48.039Z,11.83
2019-05-25T21:30:05.836Z,13.33
2019-05-25T21:38:23.421Z,9.47
2019-05-25T21:55:40.289Z,13.93
2019-05-25T22:12:44.330Z,10.97
2019-05-25T22:21:01.849Z,8.13
2019-05-25T22:29:19.356Z,11.90
2019-05-25T22:37:37.004Z,13.50
2019-05-25T22:45:54.887Z,21.00
2019-05-25T22:54:12.731Z,13.60
2019-05-25T23:02:30.241Z,13.08
2019-05-25T23:10:47.722Z,10.30
2019-05-25T23:19:05.188Z,9.73
2019-05-25T23:27:23.882Z,16.47
2019-05-25T23:35:41.372Z,14.23
2019-05-25T23:43:59.901Z,11.77
2019-05-25T23:52:17.736Z,11.57
